Terminal Aerodrome Forecast
Issued by NWS

Home | Current Version | Previous Version | Graphics & Text | Print | Product List | Glossary On
Versions: 1 2 3 4 5 6 7 8 9 10 11 12
000
FTUS43 KTOP 271700
TAFFOE
TAF
KFOE 271736Z 2718/2818 17010KT P6SM FEW060
     FM280900 VRB04KT 4SM MIFG SKC
     FM281400 18006KT P6SM FEW080=

USA.gov is the U.S. government's official web portal to all federal, state and local government web resources and services.